sensor_id;sensor_type;location;lat;lon;timestamp;pressure;altitude;pressure_sealevel;temperature;humidity
8653;BME280;4364;52.426;9.424;2023-06-04T00:02:14;101686.88;;;10.85;54.73
8653;BME280;4364;52.426;9.424;2023-06-04T00:04:40;101690.94;;;10.83;55.66
8653;BME280;4364;52.426;9.424;2023-06-04T00:07:07;101682.38;;;10.74;55.84
8653;BME280;4364;52.426;9.424;2023-06-04T00:09:34;101680.25;;;10.76;55.84
8653;BME280;4364;52.426;9.424;2023-06-04T00:12:01;101683.34;;;10.63;56.63
8653;BME280;4364;52.426;9.424;2023-06-04T00:14:28;101673.28;;;10.63;56.33
8653;BME280;4364;52.426;9.424;2023-06-04T00:16:54;101675.06;;;10.52;56.84
8653;BME280;4364;52.426;9.424;2023-06-04T00:19:21;101672.00;;;10.49;56.68
8653;BME280;4364;52.426;9.424;2023-06-04T00:21:48;101668.78;;;10.52;56.39
8653;BME280;4364;52.426;9.424;2023-06-04T00:24:16;101673.47;;;10.56;56.14
8653;BME280;4364;52.426;9.424;2023-06-04T00:26:54;101672.91;;;10.54;55.79
8653;BME280;4364;52.426;9.424;2023-06-04T00:29:21;101672.06;;;10.54;55.36
8653;BME280;4364;52.426;9.424;2023-06-04T00:31:47;101671.25;;;10.53;56.03
8653;BME280;4364;52.426;9.424;2023-06-04T00:34:14;101677.25;;;10.55;55.40
8653;BME280;4364;52.426;9.424;2023-06-04T00:36:41;101681.00;;;10.49;55.73
8653;BME280;4364;52.426;9.424;2023-06-04T00:39:07;101672.44;;;10.41;55.82
8653;BME280;4364;52.426;9.424;2023-06-04T00:41:34;101674.63;;;10.22;56.28
8653;BME280;4364;52.426;9.424;2023-06-04T00:44:00;101675.53;;;10.10;57.17
8653;BME280;4364;52.426;9.424;2023-06-04T00:46:28;101672.81;;;10.10;56.44
8653;BME280;4364;52.426;9.424;2023-06-04T00:48:55;101677.78;;;9.96;56.83
8653;BME280;4364;52.426;9.424;2023-06-04T00:51:22;101673.09;;;9.75;57.37
8653;BME280;4364;52.426;9.424;2023-06-04T00:53:50;101673.44;;;9.78;57.39
8653;BME280;4364;52.426;9.424;2023-06-04T00:56:17;101674.84;;;9.64;57.79
8653;BME280;4364;52.426;9.424;2023-06-04T00:58:45;101682.00;;;9.53;58.12
8653;BME280;4364;52.426;9.424;2023-06-04T01:01:20;101687.84;;;9.62;58.51
8653;BME280;4364;52.426;9.424;2023-06-04T01:03:51;101684.63;;;9.65;58.42
8653;BME280;4364;52.426;9.424;2023-06-04T01:06:27;101678.31;;;9.59;58.21
8653;BME280;4364;52.426;9.424;2023-06-04T01:08:57;101679.34;;;9.41;59.11
8653;BME280;4364;52.426;9.424;2023-06-04T01:11:35;101674.88;;;9.35;59.36
8653;BME280;4364;52.426;9.424;2023-06-04T01:14:03;101683.19;;;9.28;59.53
8653;BME280;4364;52.426;9.424;2023-06-04T01:16:38;101680.06;;;9.37;59.59
8653;BME280;4364;52.426;9.424;2023-06-04T01:19:16;101671.84;;;9.32;59.61
8653;BME280;4364;52.426;9.424;2023-06-04T01:21:50;101677.59;;;9.35;59.83
8653;BME280;4364;52.426;9.424;2023-06-04T01:24:21;101673.91;;;9.41;59.55
8653;BME280;4364;52.426;9.424;2023-06-04T01:26:49;101671.03;;;9.48;59.25
8653;BME280;4364;52.426;9.424;2023-06-04T01:29:18;101675.91;;;9.46;59.06
8653;BME280;4364;52.426;9.424;2023-06-04T01:31:44;101665.28;;;9.44;58.90
8653;BME280;4364;52.426;9.424;2023-06-04T01:34:11;101666.50;;;9.37;59.23
8653;BME280;4364;52.426;9.424;2023-06-04T01:36:37;101666.50;;;9.37;58.90
8653;BME280;4364;52.426;9.424;2023-06-04T01:39:04;101658.69;;;9.40;59.66
8653;BME280;4364;52.426;9.424;2023-06-04T01:41:31;101664.53;;;9.32;60.12
8653;BME280;4364;52.426;9.424;2023-06-04T01:43:57;101660.91;;;9.26;60.93
8653;BME280;4364;52.426;9.424;2023-06-04T01:46:24;101666.47;;;9.20;61.23
8653;BME280;4364;52.426;9.424;2023-06-04T01:48:50;101667.97;;;9.11;62.22
8653;BME280;4364;52.426;9.424;2023-06-04T01:51:17;101661.25;;;9.01;62.71
8653;BME280;4364;52.426;9.424;2023-06-04T01:53:43;101670.13;;;8.97;62.96
8653;BME280;4364;52.426;9.424;2023-06-04T01:56:10;101666.25;;;8.93;62.95
8653;BME280;4364;52.426;9.424;2023-06-04T01:58:37;101669.22;;;8.91;63.46
8653;BME280;4364;52.426;9.424;2023-06-04T02:01:04;101667.88;;;8.94;63.72
8653;BME280;4364;52.426;9.424;2023-06-04T02:03:32;101669.03;;;9.09;63.51
8653;BME280;4364;52.426;9.424;2023-06-04T02:06:04;101663.75;;;9.03;63.60
8653;BME280;4364;52.426;9.424;2023-06-04T02:08:34;101663.91;;;9.13;63.24
8653;BME280;4364;52.426;9.424;2023-06-04T02:11:01;101659.59;;;9.12;63.24
8653;BME280;4364;52.426;9.424;2023-06-04T02:13:29;101655.84;;;9.01;64.00
8653;BME280;4364;52.426;9.424;2023-06-04T02:15:55;101663.56;;;8.93;65.23
8653;BME280;4364;52.426;9.424;2023-06-04T02:18:22;101654.59;;;8.92;65.00
8653;BME280;4364;52.426;9.424;2023-06-04T02:20:49;101660.25;;;8.90;64.33
8653;BME280;4364;52.426;9.424;2023-06-04T02:23:18;101660.25;;;8.90;64.53
8653;BME280;4364;52.426;9.424;2023-06-04T02:25:45;101668.97;;;8.93;64.32
8653;BME280;4364;52.426;9.424;2023-06-04T02:28:12;101665.19;;;8.94;63.81
8653;BME280;4364;52.426;9.424;2023-06-04T02:30:39;101665.84;;;8.84;64.27
8653;BME280;4364;52.426;9.424;2023-06-04T02:33:06;101664.03;;;8.89;63.70
8653;BME280;4364;52.426;9.424;2023-06-04T02:35:32;101664.41;;;8.81;64.22
8653;BME280;4364;52.426;9.424;2023-06-04T02:37:59;101653.09;;;8.84;64.70
8653;BME280;4364;52.426;9.424;2023-06-04T02:40:26;101664.78;;;8.73;65.80
8653;BME280;4364;52.426;9.424;2023-06-04T02:42:54;101670.13;;;8.68;65.91
8653;BME280;4364;52.426;9.424;2023-06-04T02:45:22;101673.78;;;8.62;66.94
8653;BME280;4364;52.426;9.424;2023-06-04T02:47:49;101673.56;;;8.51;66.69
8653;BME280;4364;52.426;9.424;2023-06-04T02:50:16;101671.66;;;8.40;67.28
8653;BME280;4364;52.426;9.424;2023-06-04T02:52:43;101670.28;;;8.49;68.43
8653;BME280;4364;52.426;9.424;2023-06-04T02:55:10;101668.81;;;8.70;68.33
8653;BME280;4364;52.426;9.424;2023-06-04T02:57:40;101676.69;;;8.84;68.72
8653;BME280;4364;52.426;9.424;2023-06-04T03:00:11;101674.97;;;8.95;68.16
8653;BME280;4364;52.426;9.424;2023-06-04T03:02:42;101680.41;;;8.95;67.71
8653;BME280;4364;52.426;9.424;2023-06-04T03:05:10;101685.09;;;8.99;67.30
8653;BME280;4364;52.426;9.424;2023-06-04T03:07:37;101683.34;;;8.93;67.16
8653;BME280;4364;52.426;9.424;2023-06-04T03:10:05;101674.50;;;8.98;67.06
8653;BME280;4364;52.426;9.424;2023-06-04T03:12:31;101675.06;;;9.00;66.54
8653;BME280;4364;52.426;9.424;2023-06-04T03:14:58;101683.34;;;8.93;66.21
8653;BME280;4364;52.426;9.424;2023-06-04T03:17:25;101687.72;;;8.94;66.22
8653;BME280;4364;52.426;9.424;2023-06-04T03:19:52;101689.03;;;8.92;66.37
8653;BME280;4364;52.426;9.424;2023-06-04T03:22:19;101685.50;;;8.91;66.26
8653;BME280;4364;52.426;9.424;2023-06-04T03:24:47;101688.53;;;8.95;66.09
8653;BME280;4364;52.426;9.424;2023-06-04T03:27:13;101681.75;;;8.80;67.33
8653;BME280;4364;52.426;9.424;2023-06-04T03:29:41;101679.00;;;8.92;67.29
8653;BME280;4364;52.426;9.424;2023-06-04T03:32:09;101679.69;;;8.99;66.62
8653;BME280;4364;52.426;9.424;2023-06-04T03:34:36;101680.00;;;9.03;66.16
8653;BME280;4364;52.426;9.424;2023-06-04T03:37:03;101684.25;;;9.11;65.69
8653;BME280;4364;52.426;9.424;2023-06-04T03:39:31;101682.31;;;8.94;66.27
8653;BME280;4364;52.426;9.424;2023-06-04T03:41:59;101681.34;;;8.88;66.42
8653;BME280;4364;52.426;9.424;2023-06-04T03:44:27;101680.97;;;8.97;66.17
8653;BME280;4364;52.426;9.424;2023-06-04T03:46:53;101677.22;;;8.98;66.34
8653;BME280;4364;52.426;9.424;2023-06-04T03:49:20;101685.69;;;9.01;65.82
8653;BME280;4364;52.426;9.424;2023-06-04T03:51:49;101682.97;;;9.01;65.31
8653;BME280;4364;52.426;9.424;2023-06-04T03:54:15;101686.88;;;9.05;65.10
8653;BME280;4364;52.426;9.424;2023-06-04T03:56:47;101685.53;;;9.08;65.23
8653;BME280;4364;52.426;9.424;2023-06-04T03:59:14;101681.78;;;9.09;65.38
8653;BME280;4364;52.426;9.424;2023-06-04T04:01:41;101675.75;;;9.07;65.37
8653;BME280;4364;52.426;9.424;2023-06-04T04:04:08;101674.09;;;9.06;65.23
8653;BME280;4364;52.426;9.424;2023-06-04T04:06:35;101679.06;;;9.09;65.01
8653;BME280;4364;52.426;9.424;2023-06-04T04:09:03;101683.13;;;8.95;65.35
8653;BME280;4364;52.426;9.424;2023-06-04T04:11:33;101679.94;;;8.98;65.05
8653;BME280;4364;52.426;9.424;2023-06-04T04:14:00;101688.31;;;8.96;64.88
8653;BME280;4364;52.426;9.424;2023-06-04T04:16:27;101687.00;;;8.99;64.96
8653;BME280;4364;52.426;9.424;2023-06-04T04:18:55;101689.03;;;8.92;65.46
8653;BME280;4364;52.426;9.424;2023-06-04T04:21:22;101688.78;;;8.93;64.95
8653;BME280;4364;52.426;9.424;2023-06-04T04:23:50;101689.88;;;8.92;64.75
8653;BME280;4364;52.426;9.424;2023-06-04T04:26:18;101686.75;;;9.00;64.85
8653;BME280;4364;52.426;9.424;2023-06-04T04:28:48;101684.81;;;9.13;64.00
8653;BME280;4364;52.426;9.424;2023-06-04T04:31:15;101678.81;;;9.11;64.30
8653;BME280;4364;52.426;9.424;2023-06-04T04:33:42;101677.66;;;9.23;64.15
8653;BME280;4364;52.426;9.424;2023-06-04T04:36:11;101684.50;;;9.26;63.75
8653;BME280;4364;52.426;9.424;2023-06-04T04:38:45;101683.44;;;9.27;63.87
8653;BME280;4364;52.426;9.424;2023-06-04T04:41:12;101681.81;;;9.43;63.27
8653;BME280;4364;52.426;9.424;2023-06-04T04:43:40;101682.41;;;9.45;63.12
8653;BME280;4364;52.426;9.424;2023-06-04T04:46:20;101679.53;;;9.52;62.92
8653;BME280;4364;52.426;9.424;2023-06-04T04:48:47;101684.28;;;9.44;63.16
8653;BME280;4364;52.426;9.424;2023-06-04T04:51:14;101680.53;;;9.45;63.11
8653;BME280;4364;52.426;9.424;2023-06-04T04:53:40;101689.56;;;9.51;63.72
8653;BME280;4364;52.426;9.424;2023-06-04T04:56:07;101682.81;;;9.54;63.33
8653;BME280;4364;52.426;9.424;2023-06-04T04:58:38;101691.31;;;9.74;62.99
8653;BME280;4364;52.426;9.424;2023-06-04T05:01:05;101694.69;;;9.64;63.11
8653;BME280;4364;52.426;9.424;2023-06-04T05:03:32;101691.56;;;9.73;63.12
8653;BME280;4364;52.426;9.424;2023-06-04T05:05:58;101684.13;;;9.85;63.65
8653;BME280;4364;52.426;9.424;2023-06-04T05:08:25;101682.25;;;9.86;63.60
8653;BME280;4364;52.426;9.424;2023-06-04T05:10:52;101689.72;;;9.95;63.20
8653;BME280;4364;52.426;9.424;2023-06-04T05:13:18;101684.72;;;10.04;63.71
8653;BME280;4364;52.426;9.424;2023-06-04T05:15:52;101684.84;;;10.14;63.26
8653;BME280;4364;52.426;9.424;2023-06-04T05:18:22;101690.13;;;10.21;63.34
8653;BME280;4364;52.426;9.424;2023-06-04T05:20:59;101680.13;;;10.27;63.64
8653;BME280;4364;52.426;9.424;2023-06-04T05:23:29;101696.19;;;10.28;63.03
8653;BME280;4364;52.426;9.424;2023-06-04T05:25:56;101695.53;;;10.38;63.57
8653;BME280;4364;52.426;9.424;2023-06-04T05:28:23;101693.56;;;10.55;62.66
8653;BME280;4364;52.426;9.424;2023-06-04T05:30:51;101705.78;;;10.53;62.48
8653;BME280;4364;52.426;9.424;2023-06-04T05:33:18;101707.59;;;10.64;62.84
8653;BME280;4364;52.426;9.424;2023-06-04T05:35:56;101702.06;;;10.81;62.43
8653;BME280;4364;52.426;9.424;2023-06-04T05:38:26;101703.63;;;10.99;62.08
8653;BME280;4364;52.426;9.424;2023-06-04T05:40:56;101702.72;;;11.43;60.65
8653;BME280;4364;52.426;9.424;2023-06-04T05:43:26;101700.38;;;11.57;59.93
8653;BME280;4364;52.426;9.424;2023-06-04T05:45:53;101709.91;;;11.86;59.32
8653;BME280;4364;52.426;9.424;2023-06-04T05:48:20;101710.09;;;12.12;58.42
8653;BME280;4364;52.426;9.424;2023-06-04T05:50:47;101706.22;;;12.46;56.97
8653;BME280;4364;52.426;9.424;2023-06-04T05:53:14;101712.34;;;12.68;55.88
8653;BME280;4364;52.426;9.424;2023-06-04T05:55:42;101708.88;;;12.98;53.91
8653;BME280;4364;52.426;9.424;2023-06-04T05:58:09;101707.06;;;13.25;51.98
8653;BME280;4364;52.426;9.424;2023-06-04T06:00:36;101718.78;;;13.15;53.47
8653;BME280;4364;52.426;9.424;2023-06-04T06:03:03;101716.31;;;13.13;53.08
8653;BME280;4364;52.426;9.424;2023-06-04T06:05:40;101717.19;;;13.40;53.28
8653;BME280;4364;52.426;9.424;2023-06-04T06:08:06;101705.75;;;13.63;52.48
8653;BME280;4364;52.426;9.424;2023-06-04T06:10:33;101713.41;;;13.77;51.33
8653;BME280;4364;52.426;9.424;2023-06-04T06:13:00;101717.75;;;13.88;50.86
8653;BME280;4364;52.426;9.424;2023-06-04T06:15:28;101722.41;;;13.93;51.09
8653;BME280;4364;52.426;9.424;2023-06-04T06:17:55;101717.72;;;14.29;50.27
8653;BME280;4364;52.426;9.424;2023-06-04T06:20:22;101726.13;;;14.53;49.55
8653;BME280;4364;52.426;9.424;2023-06-04T06:22:50;101724.75;;;14.56;48.16
8653;BME280;4364;52.426;9.424;2023-06-04T06:25:19;101726.97;;;14.59;47.42
8653;BME280;4364;52.426;9.424;2023-06-04T06:27:56;101726.97;;;14.59;46.97
8653;BME280;4364;52.426;9.424;2023-06-04T06:30:24;101729.94;;;14.68;47.09
8653;BME280;4364;52.426;9.424;2023-06-04T06:32:51;101728.28;;;14.72;46.68
8653;BME280;4364;52.426;9.424;2023-06-04T06:35:21;101731.84;;;14.72;47.61
8653;BME280;4364;52.426;9.424;2023-06-04T06:37:48;101730.66;;;14.94;47.87
8653;BME280;4364;52.426;9.424;2023-06-04T06:40:14;101731.53;;;15.34;46.37
8653;BME280;4364;52.426;9.424;2023-06-04T06:42:41;101729.00;;;15.43;45.68
8653;BME280;4364;52.426;9.424;2023-06-04T06:45:08;101726.38;;;15.62;45.75
8653;BME280;4364;52.426;9.424;2023-06-04T06:47:35;101735.06;;;15.79;45.71
8653;BME280;4364;52.426;9.424;2023-06-04T06:50:02;101733.31;;;15.88;44.97
8653;BME280;4364;52.426;9.424;2023-06-04T06:52:28;101735.56;;;16.16;44.44
8653;BME280;4364;52.426;9.424;2023-06-04T06:54:58;101736.25;;;16.56;43.88
8653;BME280;4364;52.426;9.424;2023-06-04T06:57:24;101744.34;;;16.90;42.89
8653;BME280;4364;52.426;9.424;2023-06-04T06:59:51;101737.44;;;16.68;41.57
8653;BME280;4364;52.426;9.424;2023-06-04T07:02:20;101736.25;;;16.99;41.62
8653;BME280;4364;52.426;9.424;2023-06-04T07:04:47;101738.59;;;17.30;41.13
8653;BME280;4364;52.426;9.424;2023-06-04T07:07:14;101745.66;;;17.36;40.62
8653;BME280;4364;52.426;9.424;2023-06-04T07:09:44;101743.78;;;17.69;40.63
8653;BME280;4364;52.426;9.424;2023-06-04T07:12:10;101739.13;;;17.84;39.91
8653;BME280;4364;52.426;9.424;2023-06-04T07:14:37;101749.84;;;18.04;39.90
8653;BME280;4364;52.426;9.424;2023-06-04T07:17:03;101742.50;;;18.13;39.30
8653;BME280;4364;52.426;9.424;2023-06-04T07:19:30;101750.22;;;17.98;39.69
8653;BME280;4364;52.426;9.424;2023-06-04T07:21:57;101750.53;;;17.96;39.48
8653;BME280;4364;52.426;9.424;2023-06-04T07:24:23;101745.94;;;18.05;39.61
8653;BME280;4364;52.426;9.424;2023-06-04T07:26:50;101749.88;;;18.46;39.35
8653;BME280;4364;52.426;9.424;2023-06-04T07:29:17;101734.91;;;18.52;38.53
8653;BME280;4364;52.426;9.424;2023-06-04T07:31:43;101730.00;;;18.49;39.13
8653;BME280;4364;52.426;9.424;2023-06-04T07:34:10;101729.81;;;18.73;39.13
8653;BME280;4364;52.426;9.424;2023-06-04T07:36:36;101734.28;;;18.97;37.95
8653;BME280;4364;52.426;9.424;2023-06-04T07:39:03;101733.94;;;19.12;38.18
8653;BME280;4364;52.426;9.424;2023-06-04T07:41:32;101733.44;;;18.82;37.30
8653;BME280;4364;52.426;9.424;2023-06-04T07:43:59;101744.06;;;18.75;36.78
8653;BME280;4364;52.426;9.424;2023-06-04T07:46:26;101741.34;;;19.03;36.09
8653;BME280;4364;52.426;9.424;2023-06-04T07:48:53;101750.84;;;19.33;35.68
8653;BME280;4364;52.426;9.424;2023-06-04T07:51:19;101747.47;;;19.36;34.41
8653;BME280;4364;52.426;9.424;2023-06-04T07:53:46;101751.28;;;19.49;34.40
8653;BME280;4364;52.426;9.424;2023-06-04T07:56:12;101753.78;;;19.37;34.50
8653;BME280;4364;52.426;9.424;2023-06-04T07:58:39;101756.66;;;19.68;34.93
8653;BME280;4364;52.426;9.424;2023-06-04T08:01:06;101754.06;;;19.72;34.72
8653;BME280;4364;52.426;9.424;2023-06-04T08:03:33;101752.91;;;19.87;34.52
8653;BME280;4364;52.426;9.424;2023-06-04T08:06:00;101753.19;;;19.76;34.78
8653;BME280;4364;52.426;9.424;2023-06-04T08:08:30;101749.25;;;20.00;34.24
8653;BME280;4364;52.426;9.424;2023-06-04T08:10:57;101753.06;;;20.13;34.58
8653;BME280;4364;52.426;9.424;2023-06-04T08:13:24;101754.28;;;20.29;34.29
8653;BME280;4364;52.426;9.424;2023-06-04T08:15:50;101752.72;;;20.46;34.66
8653;BME280;4364;52.426;9.424;2023-06-04T08:18:17;101740.59;;;20.55;34.60
8653;BME280;4364;52.426;9.424;2023-06-04T08:20:43;101744.09;;;20.39;33.67
8653;BME280;4364;52.426;9.424;2023-06-04T08:23:10;101747.31;;;20.01;33.91
8653;BME280;4364;52.426;9.424;2023-06-04T08:25:37;101748.56;;;19.72;35.20
8653;BME280;4364;52.426;9.424;2023-06-04T08:28:03;101748.25;;;19.96;33.49
8653;BME280;4364;52.426;9.424;2023-06-04T08:30:30;101764.03;;;19.59;34.20
8653;BME280;4364;52.426;9.424;2023-06-04T08:32:56;101756.97;;;19.67;34.28
8653;BME280;4364;52.426;9.424;2023-06-04T08:35:23;101752.59;;;19.88;34.76
8653;BME280;4364;52.426;9.424;2023-06-04T08:37:49;101758.16;;;19.97;34.64
8653;BME280;4364;52.426;9.424;2023-06-04T08:40:16;101760.63;;;19.98;33.25
8653;BME280;4364;52.426;9.424;2023-06-04T08:42:43;101757.34;;;19.74;32.77
8653;BME280;4364;52.426;9.424;2023-06-04T08:45:13;101758.03;;;19.79;33.69
8653;BME280;4364;52.426;9.424;2023-06-04T08:47:43;101758.13;;;19.88;31.41
8653;BME280;4364;52.426;9.424;2023-06-04T08:50:12;101762.84;;;20.19;31.40
8653;BME280;4364;52.426;9.424;2023-06-04T08:52:40;101758.44;;;20.49;30.18
8653;BME280;4364;52.426;9.424;2023-06-04T08:55:08;101754.81;;;20.71;30.12
8653;BME280;4364;52.426;9.424;2023-06-04T08:57:39;101753.34;;;20.74;28.58
8653;BME280;4364;52.426;9.424;2023-06-04T09:00:07;101765.31;;;20.61;29.04
8653;BME280;4364;52.426;9.424;2023-06-04T09:02:35;101765.50;;;20.64;29.60
8653;BME280;4364;52.426;9.424;2023-06-04T09:05:05;101764.44;;;20.83;30.37
8653;BME280;4364;52.426;9.424;2023-06-04T09:07:36;101761.03;;;20.95;30.30
8653;BME280;4364;52.426;9.424;2023-06-04T09:10:08;101764.97;;;21.20;29.21
8653;BME280;4364;52.426;9.424;2023-06-04T09:12:43;101762.09;;;21.60;28.38
8653;BME280;4364;52.426;9.424;2023-06-04T09:15:11;101753.94;;;21.90;28.55
8653;BME280;4364;52.426;9.424;2023-06-04T09:17:38;101757.19;;;21.92;29.35
8653;BME280;4364;52.426;9.424;2023-06-04T09:20:05;101756.69;;;21.90;29.19
8653;BME280;4364;52.426;9.424;2023-06-04T09:22:36;101759.63;;;21.84;28.47
8653;BME280;4364;52.426;9.424;2023-06-04T09:25:06;101758.28;;;22.08;27.73
8653;BME280;4364;52.426;9.424;2023-06-04T09:27:38;101755.94;;;22.28;27.96
8653;BME280;4364;52.426;9.424;2023-06-04T09:30:07;101760.78;;;22.48;27.00
8653;BME280;4364;52.426;9.424;2023-06-04T09:32:37;101761.16;;;22.38;26.28
8653;BME280;4364;52.426;9.424;2023-06-04T09:35:12;101762.25;;;21.81;27.15
8653;BME280;4364;52.426;9.424;2023-06-04T09:37:40;101756.00;;;22.19;26.58
8653;BME280;4364;52.426;9.424;2023-06-04T09:40:08;101760.41;;;22.11;26.08
8653;BME280;4364;52.426;9.424;2023-06-04T09:42:43;101762.50;;;22.14;26.33
8653;BME280;4364;52.426;9.424;2023-06-04T09:45:10;101763.16;;;22.29;26.90
8653;BME280;4364;52.426;9.424;2023-06-04T09:47:41;101759.78;;;22.53;27.36
8653;BME280;4364;52.426;9.424;2023-06-04T09:50:10;101759.03;;;22.73;26.92
8653;BME280;4364;52.426;9.424;2023-06-04T09:52:38;101763.22;;;22.50;27.24
8653;BME280;4364;52.426;9.424;2023-06-04T09:55:16;101753.41;;;22.14;27.08
8653;BME280;4364;52.426;9.424;2023-06-04T09:57:49;101750.13;;;22.12;27.79
8653;BME280;4364;52.426;9.424;2023-06-04T10:00:20;101767.69;;;22.33;27.70
8653;BME280;4364;52.426;9.424;2023-06-04T10:02:48;101760.63;;;22.45;27.15
8653;BME280;4364;52.426;9.424;2023-06-04T10:05:15;101751.25;;;22.37;27.46
8653;BME280;4364;52.426;9.424;2023-06-04T10:07:43;101744.06;;;22.18;27.50
8653;BME280;4364;52.426;9.424;2023-06-04T10:10:18;101756.47;;;22.30;27.12
8653;BME280;4364;52.426;9.424;2023-06-04T10:12:50;101748.63;;;22.23;27.38
8653;BME280;4364;52.426;9.424;2023-06-04T10:15:18;101748.47;;;22.37;27.07
8653;BME280;4364;52.426;9.424;2023-06-04T10:17:47;101748.09;;;22.47;26.65
8653;BME280;4364;52.426;9.424;2023-06-04T10:20:14;101742.91;;;22.75;26.66
8653;BME280;4364;52.426;9.424;2023-06-04T10:22:41;101742.56;;;22.98;26.37
8653;BME280;4364;52.426;9.424;2023-06-04T10:25:08;101752.44;;;22.87;26.35
8653;BME280;4364;52.426;9.424;2023-06-04T10:27:36;101741.91;;;23.01;26.79
8653;BME280;4364;52.426;9.424;2023-06-04T10:30:04;101747.97;;;23.24;25.36
8653;BME280;4364;52.426;9.424;2023-06-04T10:32:31;101737.34;;;23.47;25.26
8653;BME280;4364;52.426;9.424;2023-06-04T10:34:58;101738.56;;;23.38;24.91
8653;BME280;4364;52.426;9.424;2023-06-04T10:37:25;101743.22;;;23.25;25.83
8653;BME280;4364;52.426;9.424;2023-06-04T10:39:53;101738.22;;;23.18;25.51
8653;BME280;4364;52.426;9.424;2023-06-04T10:42:21;101735.06;;;22.99;25.42
8653;BME280;4364;52.426;9.424;2023-06-04T10:44:50;101736.53;;;22.75;27.80
8653;BME280;4364;52.426;9.424;2023-06-04T10:47:26;101736.63;;;22.87;26.22
8653;BME280;4364;52.426;9.424;2023-06-04T10:49:54;101737.16;;;23.10;25.95
8653;BME280;4364;52.426;9.424;2023-06-04T10:52:21;101735.19;;;23.11;26.32
8653;BME280;4364;52.426;9.424;2023-06-04T10:54:48;101738.78;;;23.33;25.71
8653;BME280;4364;52.426;9.424;2023-06-04T10:57:16;101728.28;;;23.38;26.19
8653;BME280;4364;52.426;9.424;2023-06-04T10:59:56;101745.16;;;23.66;25.97
8653;BME280;4364;52.426;9.424;2023-06-04T11:02:23;101739.59;;;23.88;25.79
8653;BME280;4364;52.426;9.424;2023-06-04T11:05:06;101736.97;;;23.70;23.84
8653;BME280;4364;52.426;9.424;2023-06-04T11:07:42;101722.59;;;23.35;24.33
8653;BME280;4364;52.426;9.424;2023-06-04T11:10:13;101730.38;;;23.41;25.21
8653;BME280;4364;52.426;9.424;2023-06-04T11:15:09;101731.72;;;23.56;24.05
8653;BME280;4364;52.426;9.424;2023-06-04T11:17:35;101731.88;;;23.72;24.98
8653;BME280;4364;52.426;9.424;2023-06-04T11:20:02;101723.56;;;24.18;23.88
8653;BME280;4364;52.426;9.424;2023-06-04T11:22:31;101723.34;;;24.23;24.38
8653;BME280;4364;52.426;9.424;2023-06-04T11:24:57;101717.31;;;24.09;23.36
8653;BME280;4364;52.426;9.424;2023-06-04T11:27:27;101715.22;;;24.05;23.65
8653;BME280;4364;52.426;9.424;2023-06-04T11:30:01;101713.84;;;24.12;23.88
8653;BME280;4364;52.426;9.424;2023-06-04T11:32:28;101712.94;;;24.45;23.85
8653;BME280;4364;52.426;9.424;2023-06-04T11:35:05;101717.22;;;24.54;22.59
8653;BME280;4364;52.426;9.424;2023-06-04T11:37:33;101709.56;;;24.27;24.26
8653;BME280;4364;52.426;9.424;2023-06-04T11:40:00;101712.41;;;23.93;23.50
8653;BME280;4364;52.426;9.424;2023-06-04T11:42:27;101712.63;;;23.88;24.07
8653;BME280;4364;52.426;9.424;2023-06-04T11:44:56;101702.25;;;23.97;23.58
8653;BME280;4364;52.426;9.424;2023-06-04T11:47:24;101704.06;;;23.60;24.06
8653;BME280;4364;52.426;9.424;2023-06-04T11:49:56;101701.31;;;23.60;24.58
8653;BME280;4364;52.426;9.424;2023-06-04T11:52:23;101702.09;;;23.94;24.66
8653;BME280;4364;52.426;9.424;2023-06-04T11:54:50;101696.59;;;24.06;24.36
8653;BME280;4364;52.426;9.424;2023-06-04T11:57:17;101693.31;;;23.92;24.58
8653;BME280;4364;52.426;9.424;2023-06-04T11:59:44;101697.50;;;24.10;24.28
8653;BME280;4364;52.426;9.424;2023-06-04T12:02:10;101700.16;;;24.07;24.76
8653;BME280;4364;52.426;9.424;2023-06-04T12:04:37;101697.06;;;24.45;25.71
8653;BME280;4364;52.426;9.424;2023-06-04T12:07:05;101700.31;;;24.47;23.96
8653;BME280;4364;52.426;9.424;2023-06-04T12:09:33;101705.28;;;24.78;24.85
8653;BME280;4364;52.426;9.424;2023-06-04T12:12:06;101710.19;;;24.69;23.89
8653;BME280;4364;52.426;9.424;2023-06-04T12:14:33;101694.66;;;24.31;23.44
8653;BME280;4364;52.426;9.424;2023-06-04T12:17:07;101700.84;;;24.03;23.55
8653;BME280;4364;52.426;9.424;2023-06-04T12:19:46;101692.56;;;24.16;25.58
8653;BME280;4364;52.426;9.424;2023-06-04T12:22:14;101688.63;;;24.41;25.64
8653;BME280;4364;52.426;9.424;2023-06-04T12:24:47;101689.66;;;24.74;24.14
8653;BME280;4364;52.426;9.424;2023-06-04T12:27:15;101686.75;;;24.70;23.56
8653;BME280;4364;52.426;9.424;2023-06-04T12:29:42;101692.13;;;24.63;25.44
8653;BME280;4364;52.426;9.424;2023-06-04T12:32:09;101690.34;;;24.83;24.41
8653;BME280;4364;52.426;9.424;2023-06-04T12:34:40;101687.69;;;24.25;23.81
8653;BME280;4364;52.426;9.424;2023-06-04T12:37:07;101692.56;;;24.53;24.58
8653;BME280;4364;52.426;9.424;2023-06-04T12:39:35;101686.41;;;24.47;25.11
8653;BME280;4364;52.426;9.424;2023-06-04T12:42:05;101688.59;;;24.54;24.41
8653;BME280;4364;52.426;9.424;2023-06-04T12:44:32;101678.91;;;24.48;24.85
8653;BME280;4364;52.426;9.424;2023-06-04T12:47:02;101673.09;;;24.40;24.37
8653;BME280;4364;52.426;9.424;2023-06-04T12:49:28;101671.50;;;24.64;24.98
8653;BME280;4364;52.426;9.424;2023-06-04T12:51:55;101664.66;;;24.49;24.62
8653;BME280;4364;52.426;9.424;2023-06-04T12:54:22;101671.03;;;24.37;24.57
8653;BME280;4364;52.426;9.424;2023-06-04T12:56:49;101681.19;;;24.46;25.00
8653;BME280;4364;52.426;9.424;2023-06-04T12:59:16;101672.84;;;24.70;24.68
8653;BME280;4364;52.426;9.424;2023-06-04T13:01:42;101670.91;;;24.71;25.36
8653;BME280;4364;52.426;9.424;2023-06-04T13:04:09;101669.63;;;25.09;24.54
8653;BME280;4364;52.426;9.424;2023-06-04T13:06:37;101667.44;;;25.02;24.17
8653;BME280;4364;52.426;9.424;2023-06-04T13:09:05;101668.16;;;24.99;24.49
8653;BME280;4364;52.426;9.424;2023-06-04T13:11:44;101666.53;;;24.98;25.31
8653;BME280;4364;52.426;9.424;2023-06-04T13:14:11;101658.66;;;25.00;24.83
8653;BME280;4364;52.426;9.424;2023-06-04T13:16:38;101657.22;;;24.78;24.61
8653;BME280;4364;52.426;9.424;2023-06-04T13:19:05;101663.00;;;25.13;24.54
8653;BME280;4364;52.426;9.424;2023-06-04T13:21:33;101656.50;;;25.22;23.96
8653;BME280;4364;52.426;9.424;2023-06-04T13:24:00;101649.91;;;25.26;24.28